Time;durP1;ratioP1;P1;durP2;ratioP2;P2;SDS_P1;SDS_P2;PMS_P1;PMS_P2;Temp;Humidity;BMP_temperature;BMP_pressure;BME280_temperature;BME280_humidity;BME280_pressure;Samples;Min_cycle;Max_cycle;Signal;HPM_P1;HPM_P2
2023/06/13 00:00:00;;;;;;;0.13;0.13;;;19.70;99.90;;;;;;5035739;28;20032;-89
2023/06/13 00:02:28;;;;;;;0.10;0.10;;;19.70;99.90;;;;;;5035383;28;20022;-88
2023/06/13 00:04:55;;;;;;;0.25;0.25;;;19.70;99.90;;;;;;5017514;28;20053;-89
2023/06/13 00:07:22;;;;;;;0.22;0.20;;;19.70;99.90;;;;;;5035436;28;20025;-89
2023/06/13 00:09:47;;;;;;;0.10;0.10;;;19.70;99.90;;;;;;5035400;28;20046;-88
2023/06/13 00:12:13;;;;;;;0.15;0.15;;;19.80;99.90;;;;;;5035302;28;20113;-89
2023/06/13 00:14:38;;;;;;;0.10;0.10;;;19.80;99.90;;;;;;5035864;28;20045;-89
2023/06/13 00:17:04;;;;;;;0.10;0.10;;;19.70;99.90;;;;;;5035237;28;20028;-89
2023/06/13 00:19:30;;;;;;;0.20;0.20;;;19.80;99.90;;;;;;5035059;28;20112;-89
2023/06/13 00:21:57;;;;;;;0.28;0.28;;;19.70;99.90;;;;;;5034639;28;20099;-89
2023/06/13 00:24:22;;;;;;;0.43;0.43;;;19.60;99.90;;;;;;5034898;28;20037;-89
2023/06/13 00:26:48;;;;;;;0.10;0.10;;;19.70;99.90;;;;;;5034912;28;20034;-88
2023/06/13 00:29:14;;;;;;;0.32;0.32;;;19.50;99.90;;;;;;5034151;28;20030;-88
2023/06/13 00:31:40;;;;;;;0.13;0.13;;;19.50;99.90;;;;;;5034681;28;20083;-89
2023/06/13 00:34:05;;;;;;;0.20;0.20;;;19.50;99.90;;;;;;5034880;28;20034;-88
2023/06/13 00:36:37;;;;;;;0.28;0.28;;;19.60;99.90;;;;;;5034826;28;20021;-89
2023/06/13 00:39:02;;;;;;;0.10;0.10;;;19.60;99.90;;;;;;5034576;28;20104;-89
2023/06/13 00:41:31;;;;;;;0.10;0.10;;;19.60;99.90;;;;;;5034310;28;20132;-89
2023/06/13 00:43:57;;;;;;;0.20;0.20;;;19.60;99.90;;;;;;5035112;28;20034;-88
2023/06/13 00:46:32;;;;;;;0.00;0.00;;;19.50;99.90;;;;;;5034720;28;20504;-88
2023/06/13 00:48:58;;;;;;;0.20;0.20;;;19.60;99.90;;;;;;5034649;28;20099;-89
2023/06/13 00:51:27;;;;;;;0.10;0.10;;;19.50;99.90;;;;;;5034080;28;20021;-88
2023/06/13 00:53:54;;;;;;;0.10;0.10;;;19.50;99.90;;;;;;5034349;28;20551;-89
2023/06/13 00:56:20;;;;;;;3.50;0.20;;;19.50;99.90;;;;;;5034425;28;20021;-89
2023/06/13 00:58:45;;;;;;;0.25;0.10;;;19.60;99.90;;;;;;5034368;28;20095;-89
2023/06/13 01:01:13;;;;;;;0.00;0.00;;;19.60;99.90;;;;;;5035399;28;20026;-89
2023/06/13 01:03:39;;;;;;;0.20;0.20;;;19.50;99.90;;;;;;5034242;28;20029;-89
2023/06/13 01:06:05;;;;;;;0.10;0.10;;;19.40;99.90;;;;;;5033929;28;20033;-89
2023/06/13 01:08:31;;;;;;;0.25;0.10;;;19.50;99.90;;;;;;5034265;28;20397;-89
2023/06/13 01:11:12;;;;;;;0.10;0.10;;;19.50;99.90;;;;;;5034131;28;20091;-89
2023/06/13 01:13:51;;;;;;;0.10;0.10;;;19.50;99.90;;;;;;5033975;28;20026;-88
2023/06/13 01:16:25;;;;;;;0.30;0.28;;;19.50;99.90;;;;;;5034137;28;20079;-88
2023/06/13 01:18:54;;;;;;;0.00;0.00;;;19.50;99.90;;;;;;5034210;28;20041;-89
2023/06/13 01:21:21;;;;;;;0.10;0.10;;;19.50;99.90;;;;;;5033493;28;20025;-89
2023/06/13 01:23:58;;;;;;;0.10;0.10;;;19.60;99.90;;;;;;5034016;28;20030;-88
2023/06/13 01:26:47;;;;;;;0.20;0.13;;;19.40;99.90;;;;;;5034215;28;20529;-89
2023/06/13 01:29:15;;;;;;;0.10;0.10;;;19.40;99.90;;;;;;5033795;28;20033;-88
2023/06/13 01:31:42;;;;;;;0.00;0.00;;;19.40;99.90;;;;;;5033727;28;20035;-89
2023/06/13 01:34:10;;;;;;;0.10;0.10;;;19.40;99.90;;;;;;5033694;28;20049;-89
2023/06/13 01:36:36;;;;;;;0.10;0.10;;;19.40;99.90;;;;;;5033071;28;20714;-88
2023/06/13 01:39:02;;;;;;;0.20;0.15;;;19.30;99.90;;;;;;5033738;28;20053;-88
2023/06/13 01:41:27;;;;;;;0.10;0.10;;;19.40;99.90;;;;;;5033755;28;20045;-88
2023/06/13 01:43:53;;;;;;;1.08;0.70;;;19.40;99.90;;;;;;5033436;28;20104;-89
2023/06/13 01:46:27;;;;;;;0.00;0.00;;;19.40;99.90;;;;;;5033934;28;20025;-89
2023/06/13 01:49:03;;;;;;;0.22;0.22;;;19.30;99.90;;;;;;5032931;28;20037;-89
2023/06/13 01:51:59;;;;;;;0.20;0.10;;;19.30;99.90;;;;;;5033040;28;20029;-89
2023/06/13 01:54:28;;;;;;;0.38;0.38;;;19.40;99.90;;;;;;5033359;28;20022;-89
2023/06/13 01:57:01;;;;;;;0.30;0.30;;;19.30;99.90;;;;;;5033277;28;20461;-88
2023/06/13 01:59:28;;;;;;;0.30;0.30;;;19.30;99.90;;;;;;5033740;28;20029;-89
2023/06/13 02:01:55;;;;;;;0.52;0.20;;;19.20;99.90;;;;;;5032808;28;20108;-89
2023/06/13 02:04:21;;;;;;;0.10;0.10;;;19.30;99.90;;;;;;5033268;28;20036;-89
2023/06/13 02:06:46;;;;;;;0.10;0.10;;;19.30;99.90;;;;;;5033047;28;20025;-88
2023/06/13 02:09:12;;;;;;;0.10;0.10;;;19.30;99.90;;;;;;5015120;28;20033;-88
2023/06/13 02:11:38;;;;;;;0.10;0.10;;;19.30;99.90;;;;;;5033334;28;20044;-89
2023/06/13 02:14:03;;;;;;;0.95;0.28;;;19.20;99.90;;;;;;5033016;28;20028;-89
2023/06/13 02:16:30;;;;;;;0.00;0.00;;;19.20;99.90;;;;;;5032956;28;20048;-89
2023/06/13 02:18:59;;;;;;;0.00;0.00;;;19.30;99.90;;;;;;5032987;28;20026;-89
2023/06/13 02:21:26;;;;;;;0.00;0.00;;;19.30;99.90;;;;;;5032590;28;20026;-88
2023/06/13 02:23:51;;;;;;;0.10;0.10;;;19.30;99.90;;;;;;5032783;28;20083;-89
2023/06/13 02:26:17;;;;;;;0.00;0.00;;;19.40;99.90;;;;;;5033427;28;20093;-88
2023/06/13 02:28:42;;;;;;;0.00;0.00;;;19.30;99.90;;;;;;5032498;28;20536;-88
2023/06/13 02:31:08;;;;;;;0.00;0.00;;;19.30;99.90;;;;;;5032902;28;20132;-88
2023/06/13 02:33:36;;;;;;;0.00;0.00;;;19.30;99.90;;;;;;5032352;28;20026;-89
2023/06/13 02:36:02;;;;;;;0.10;0.10;;;19.30;99.90;;;;;;5032401;28;20021;-88
2023/06/13 02:38:28;;;;;;;0.00;0.00;;;19.30;99.90;;;;;;5032663;28;20100;-88
2023/06/13 02:40:54;;;;;;;0.03;0.03;;;19.30;99.90;;;;;;5032450;28;20128;-89
2023/06/13 02:43:20;;;;;;;0.10;0.10;;;19.30;99.90;;;;;;5032477;28;20033;-88
2023/06/13 02:45:46;;;;;;;0.00;0.00;;;19.40;99.90;;;;;;5033426;28;20029;-88
2023/06/13 02:48:12;;;;;;;0.20;0.20;;;19.40;99.90;;;;;;5032143;28;20392;-88
2023/06/13 02:50:37;;;;;;;0.00;0.00;;;19.30;99.90;;;;;;5031878;28;20042;-88
2023/06/13 02:53:03;;;;;;;0.00;0.00;;;19.40;99.90;;;;;;5032414;28;20513;-88
2023/06/13 02:55:29;;;;;;;0.10;0.05;;;19.30;99.90;;;;;;5032365;28;20095;-88
2023/06/13 02:57:55;;;;;;;0.10;0.10;;;19.30;99.90;;;;;;5032149;28;20040;-87
2023/06/13 03:00:21;;;;;;;0.47;0.47;;;19.50;99.90;;;;;;5032586;28;20033;-88
2023/06/13 03:02:47;;;;;;;0.00;0.00;;;19.50;99.90;;;;;;5031473;28;20029;-88
2023/06/13 03:05:16;;;;;;;0.10;0.10;;;19.40;99.90;;;;;;5032426;28;20076;-87
2023/06/13 03:07:46;;;;;;;0.00;0.00;;;19.50;99.90;;;;;;5032127;28;20523;-88
2023/06/13 03:10:12;;;;;;;0.00;0.00;;;19.40;99.90;;;;;;5032002;28;20379;-88
2023/06/13 03:12:39;;;;;;;0.00;0.00;;;19.40;99.90;;;;;;5031875;28;20067;-88
2023/06/13 03:15:06;;;;;;;0.10;0.10;;;19.30;99.90;;;;;;5032486;28;20030;-88
2023/06/13 03:17:32;;;;;;;0.13;0.13;;;19.30;99.90;;;;;;5031785;28;20026;-87
2023/06/13 03:19:58;;;;;;;0.00;0.00;;;19.20;99.90;;;;;;5031950;28;20028;-88
2023/06/13 03:22:24;;;;;;;0.13;0.13;;;19.30;99.90;;;;;;5032233;28;20501;-88
2023/06/13 03:24:50;;;;;;;0.20;0.20;;;19.30;99.90;;;;;;5032393;28;20147;-88
2023/06/13 03:27:16;;;;;;;0.10;0.10;;;19.30;99.90;;;;;;5031966;28;20033;-88
2023/06/13 03:29:42;;;;;;;0.55;0.20;;;19.30;99.90;;;;;;5031840;28;20037;-88
2023/06/13 03:32:11;;;;;;;0.40;0.38;;;19.30;99.90;;;;;;5031631;28;20048;-88
2023/06/13 03:34:39;;;;;;;0.10;0.10;;;19.20;99.90;;;;;;5032287;28;20022;-88
2023/06/13 03:37:08;;;;;;;0.25;0.10;;;19.20;99.90;;;;;;5031786;28;20470;-87
2023/06/13 03:39:34;;;;;;;0.10;0.10;;;19.30;99.90;;;;;;5031773;28;20448;-88
2023/06/13 03:42:01;;;;;;;0.00;0.00;;;19.30;99.90;;;;;;5031850;28;20026;-87
2023/06/13 03:44:28;;;;;;;0.15;0.15;;;19.20;99.90;;;;;;5032166;28;20036;-88
2023/06/13 03:46:57;;;;;;;0.10;0.10;;;19.30;99.90;;;;;;5031535;28;20453;-88
2023/06/13 03:49:23;;;;;;;0.17;0.17;;;19.30;99.90;;;;;;5031667;28;20034;-88
2023/06/13 03:51:49;;;;;;;0.00;0.00;;;19.30;99.90;;;;;;5032245;28;20061;-88
2023/06/13 03:54:15;;;;;;;0.10;0.10;;;19.30;99.90;;;;;;5031866;28;20095;-88
2023/06/13 03:56:41;;;;;;;0.30;0.30;;;19.20;99.90;;;;;;5031688;28;20026;-88
2023/06/13 03:59:06;;;;;;;0.10;0.10;;;19.30;99.90;;;;;;5031792;28;20044;-88
2023/06/13 04:01:32;;;;;;;0.00;0.00;;;19.30;99.90;;;;;;5031618;28;20079;-88
2023/06/13 04:03:57;;;;;;;0.20;0.20;;;19.30;99.90;;;;;;5035374;28;20068;-88
2023/06/13 04:06:23;;;;;;;0.00;0.00;;;19.30;99.90;;;;;;5035505;28;20025;-88
2023/06/13 04:08:49;;;;;;;0.20;0.20;;;19.30;99.90;;;;;;5035667;28;20025;-87
2023/06/13 04:11:15;;;;;;;0.52;0.30;;;19.40;99.90;;;;;;5035342;28;20057;-88
2023/06/13 04:13:41;;;;;;;0.00;0.00;;;19.30;99.90;;;;;;5035214;28;20113;-88
2023/06/13 04:16:06;;;;;;;0.10;0.10;;;19.40;99.90;;;;;;5034622;28;20041;-88
2023/06/13 04:18:36;;;;;;;0.10;0.10;;;19.40;99.90;;;;;;5035495;28;20393;-88
2023/06/13 04:21:06;;;;;;;0.00;0.00;;;19.30;99.90;;;;;;5035123;28;20410;-87
2023/06/13 04:23:32;;;;;;;0.10;0.10;;;19.50;99.90;;;;;;5034942;28;20017;-88
2023/06/13 04:26:02;;;;;;;0.00;0.00;;;19.50;99.90;;;;;;5035045;28;20406;-88
2023/06/13 04:28:29;;;;;;;0.10;0.10;;;19.40;99.90;;;;;;5034575;28;20025;-88
2023/06/13 04:30:56;;;;;;;0.10;0.10;;;19.40;99.90;;;;;;5034506;28;20041;-88
2023/06/13 04:33:24;;;;;;;0.00;0.00;;;19.40;99.90;;;;;;5034755;28;20068;-88
2023/06/13 04:35:50;;;;;;;0.08;0.08;;;19.40;99.90;;;;;;5034921;28;20109;-88
2023/06/13 04:38:20;;;;;;;0.20;0.10;;;19.40;99.90;;;;;;5035044;28;20101;-87
2023/06/13 04:40:45;;;;;;;0.00;0.00;;;19.40;99.90;;;;;;5034473;28;20042;-87
2023/06/13 04:43:14;;;;;;;0.10;0.10;;;19.40;99.90;;;;;;5034108;28;20041;-88
2023/06/13 04:45:42;;;;;;;0.10;0.10;;;19.50;99.90;;;;;;5034619;28;20037;-88
2023/06/13 04:48:09;;;;;;;0.10;0.10;;;19.50;99.90;;;;;;5034631;28;20029;-88
2023/06/13 04:50:44;;;;;;;0.00;0.00;;;19.50;99.90;;;;;;5016325;28;20029;-88
2023/06/13 04:53:11;;;;;;;0.00;0.00;;;19.50;99.90;;;;;;5034399;28;20482;-88
2023/06/13 04:55:38;;;;;;;0.00;0.00;;;19.50;99.90;;;;;;5034758;28;20109;-88
2023/06/13 04:58:04;;;;;;;0.10;0.10;;;19.40;99.90;;;;;;5034792;28;20057;-88
2023/06/13 05:00:30;;;;;;;0.00;0.00;;;19.30;99.90;;;;;;5034393;28;20026;-88
2023/06/13 05:02:56;;;;;;;0.10;0.10;;;19.30;99.90;;;;;;5034059;28;20026;-88
2023/06/13 05:05:22;;;;;;;0.10;0.10;;;19.30;99.90;;;;;;5034464;28;20021;-88
2023/06/13 05:07:55;;;;;;;0.10;0.10;;;19.50;99.90;;;;;;5034476;28;20389;-88
2023/06/13 05:10:25;;;;;;;0.28;0.17;;;19.40;99.90;;;;;;5034395;28;20033;-88
2023/06/13 05:12:51;;;;;;;0.10;0.10;;;19.50;99.90;;;;;;5033675;28;20401;-88
2023/06/13 05:15:18;;;;;;;0.00;0.00;;;19.60;99.90;;;;;;5033239;28;20037;-88
2023/06/13 05:17:45;;;;;;;0.10;0.10;;;19.70;99.90;;;;;;5034498;28;20501;-88
2023/06/13 05:20:12;;;;;;;0.10;0.10;;;19.70;99.90;;;;;;5033901;28;20044;-88
2023/06/13 05:22:43;;;;;;;0.10;0.10;;;19.50;99.90;;;;;;5033799;28;20025;-88
2023/06/13 05:25:09;;;;;;;0.10;0.10;;;19.50;99.90;;;;;;5033671;28;20033;-88
2023/06/13 05:27:36;;;;;;;0.00;0.00;;;19.40;99.90;;;;;;5033476;28;20029;-88
2023/06/13 05:30:01;;;;;;;0.10;0.10;;;19.40;99.90;;;;;;5033335;28;20041;-88
2023/06/13 05:32:27;;;;;;;0.10;0.10;;;19.40;99.90;;;;;;5034250;28;20040;-88
2023/06/13 05:34:52;;;;;;;0.25;0.10;;;19.50;99.90;;;;;;5033642;28;20489;-88
2023/06/13 05:37:19;;;;;;;0.45;0.10;;;19.40;99.90;;;;;;5033543;28;20110;-88
2023/06/13 05:39:44;;;;;;;0.10;0.10;;;19.40;99.90;;;;;;5033194;28;20480;-88
2023/06/13 05:42:10;;;;;;;0.40;0.30;;;19.50;99.90;;;;;;5026140;28;20091;-88
2023/06/13 05:44:36;;;;;;;0.10;0.10;;;19.60;99.90;;;;;;5013523;28;20025;-88
2023/06/13 05:47:02;;;;;;;0.10;0.10;;;19.50;99.90;;;;;;5014067;28;20022;-88
2023/06/13 05:49:28;;;;;;;0.08;0.08;;;19.50;99.90;;;;;;5013573;28;20037;-88
2023/06/13 05:51:53;;;;;;;0.10;0.10;;;19.60;99.90;;;;;;5014396;28;20018;-88
2023/06/13 05:54:19;;;;;;;0.10;0.10;;;19.60;99.90;;;;;;5013886;28;20516;-88
2023/06/13 05:56:45;;;;;;;0.10;0.10;;;19.50;99.90;;;;;;5013814;28;20045;-88
2023/06/13 05:59:14;;;;;;;0.38;0.38;;;19.60;99.90;;;;;;5013762;28;20096;-88
2023/06/13 06:01:43;;;;;;;0.08;0.08;;;19.50;99.90;;;;;;5013572;28;20037;-88
2023/06/13 06:04:09;;;;;;;0.35;0.25;;;19.50;99.90;;;;;;5013513;28;20033;-88
2023/06/13 06:06:35;;;;;;;0.10;0.10;;;19.80;99.90;;;;;;5013246;28;20050;-88
2023/06/13 06:09:02;;;;;;;0.17;0.17;;;19.90;99.90;;;;;;5013276;28;20066;-88
2023/06/13 06:11:28;;;;;;;0.10;0.10;;;19.90;99.90;;;;;;5012954;28;20034;-88
2023/06/13 06:13:53;;;;;;;0.10;0.10;;;19.90;99.90;;;;;;5013057;28;20113;-88
2023/06/13 06:16:19;;;;;;;0.10;0.10;;;19.90;99.90;;;;;;5013239;28;20029;-88
2023/06/13 06:18:45;;;;;;;0.43;0.10;;;20.00;99.90;;;;;;5016026;28;20030;-86
2023/06/13 06:21:11;;;;;;;0.00;0.00;;;20.40;99.90;;;;;;5014250;28;20026;-83
2023/06/13 06:23:39;;;;;;;0.20;0.20;;;20.50;99.90;;;;;;5012852;28;20109;-83
2023/06/13 06:26:05;;;;;;;0.00;0.00;;;20.50;99.90;;;;;;5012460;28;20109;-83
2023/06/13 06:28:30;;;;;;;0.50;0.50;;;20.70;99.90;;;;;;5012565;28;20113;-83
2023/06/13 06:30:56;;;;;;;0.00;0.00;;;20.70;99.90;;;;;;5024262;28;20498;-83
2023/06/13 06:33:22;;;;;;;0.00;0.00;;;20.70;99.90;;;;;;5032525;28;20044;-83
2023/06/13 06:35:47;;;;;;;0.03;0.03;;;20.80;99.90;;;;;;5032879;28;20032;-83
2023/06/13 06:38:13;;;;;;;0.20;0.20;;;20.80;99.90;;;;;;5032001;28;20398;-83
2023/06/13 06:40:39;;;;;;;0.10;0.10;;;20.80;99.90;;;;;;5031536;28;20055;-83
2023/06/13 06:43:04;;;;;;;0.20;0.20;;;20.90;99.90;;;;;;5032111;28;20034;-83
2023/06/13 06:45:30;;;;;;;0.10;0.10;;;21.00;99.90;;;;;;5032550;28;20029;-83
2023/06/13 06:47:56;;;;;;;0.10;0.10;;;20.90;99.90;;;;;;5032330;28;20100;-83
2023/06/13 06:50:22;;;;;;;0.32;0.32;;;21.00;99.90;;;;;;5032079;28;20037;-83
2023/06/13 06:52:47;;;;;;;0.00;0.00;;;21.10;99.90;;;;;;5032025;28;20061;-83
2023/06/13 06:55:13;;;;;;;0.10;0.10;;;21.10;99.90;;;;;;5031698;28;20112;-83
2023/06/13 06:57:39;;;;;;;0.75;0.30;;;21.30;99.90;;;;;;5032194;28;20037;-83
2023/06/13 07:00:06;;;;;;;0.17;0.17;;;21.30;99.90;;;;;;5032992;28;20022;-83
2023/06/13 07:02:32;;;;;;;0.32;0.10;;;21.00;99.90;;;;;;5032047;28;20095;-83
2023/06/13 07:04:58;;;;;;;1.25;0.28;;;21.00;99.90;;;;;;5032070;28;20485;-83
2023/06/13 07:07:23;;;;;;;0.15;0.15;;;21.20;99.90;;;;;;5032105;28;20104;-83
2023/06/13 07:09:49;;;;;;;0.00;0.00;;;21.40;99.90;;;;;;5031708;28;20480;-83
2023/06/13 07:12:14;;;;;;;0.30;0.30;;;21.50;99.90;;;;;;5031937;28;20025;-83
2023/06/13 07:14:40;;;;;;;0.10;0.10;;;21.50;99.90;;;;;;5032092;28;20389;-83
2023/06/13 07:17:06;;;;;;;0.03;0.03;;;21.50;99.90;;;;;;5031974;28;20421;-83
2023/06/13 07:19:31;;;;;;;0.08;0.08;;;21.60;99.90;;;;;;5031904;28;20428;-83
2023/06/13 07:21:57;;;;;;;0.20;0.20;;;21.80;99.90;;;;;;5031908;28;20025;-84
2023/06/13 07:24:22;;;;;;;0.00;0.00;;;21.80;99.90;;;;;;5031504;28;20417;-83
2023/06/13 07:26:48;;;;;;;0.57;0.50;;;21.80;99.90;;;;;;5031907;28;20037;-83
2023/06/13 07:29:13;;;;;;;0.03;0.03;;;22.00;99.90;;;;;;5031817;28;20064;-82
2023/06/13 07:31:39;;;;;;;0.00;0.00;;;22.00;99.90;;;;;;5031605;28;20041;-83
2023/06/13 07:34:05;;;;;;;0.00;0.00;;;21.90;99.90;;;;;;5031869;28;20037;-83
2023/06/13 07:36:30;;;;;;;0.00;0.00;;;21.90;99.90;;;;;;5032462;28;20029;-83
2023/06/13 07:38:56;;;;;;;0.00;0.00;;;22.00;99.90;;;;;;5035132;28;20104;-83
2023/06/13 07:41:22;;;;;;;0.30;0.30;;;22.10;99.90;;;;;;5035808;28;20091;-83
2023/06/13 07:43:49;;;;;;;0.10;0.10;;;22.00;99.90;;;;;;5035734;28;20033;-83
2023/06/13 07:46:15;;;;;;;0.10;0.10;;;22.10;99.90;;;;;;5035324;28;20520;-83
2023/06/13 07:48:41;;;;;;;0.10;0.10;;;22.10;99.90;;;;;;5035868;28;20022;-83
2023/06/13 07:51:06;;;;;;;0.20;0.20;;;22.10;99.90;;;;;;5035312;28;20041;-83
2023/06/13 07:53:32;;;;;;;0.20;0.20;;;22.00;99.90;;;;;;5035330;28;20025;-83
2023/06/13 07:55:58;;;;;;;0.10;0.10;;;22.00;99.90;;;;;;5035983;28;20025;-83
2023/06/13 07:58:24;;;;;;;0.20;0.20;;;22.10;99.90;;;;;;5035311;28;20045;-83
2023/06/13 08:00:50;;;;;;;0.00;0.00;;;22.20;99.90;;;;;;5035760;28;20018;-83
2023/06/13 08:03:15;;;;;;;0.00;0.00;;;22.30;99.90;;;;;;5035178;28;20037;-83
2023/06/13 08:05:41;;;;;;;0.10;0.10;;;22.30;99.90;;;;;;5035185;28;20381;-83
2023/06/13 08:08:06;;;;;;;0.47;0.13;;;22.30;99.90;;;;;;5034654;28;20032;-83
2023/06/13 08:10:32;;;;;;;0.00;0.00;;;22.50;99.90;;;;;;5034907;28;20601;-83
2023/06/13 08:12:59;;;;;;;0.00;0.00;;;22.40;99.90;;;;;;5035653;28;20028;-83
2023/06/13 08:15:25;;;;;;;0.00;0.00;;;22.40;99.90;;;;;;5017221;28;20025;-83
2023/06/13 08:17:51;;;;;;;0.20;0.10;;;22.50;99.90;;;;;;5034995;28;20021;-83
2023/06/13 08:20:17;;;;;;;0.10;0.10;;;22.60;99.90;;;;;;5034894;28;20025;-82
2023/06/13 08:22:42;;;;;;;0.15;0.10;;;22.50;99.90;;;;;;5034760;28;20128;-83
2023/06/13 08:25:08;;;;;;;0.10;0.10;;;22.40;99.90;;;;;;5034798;28;20026;-83
2023/06/13 08:27:36;;;;;;;1.38;0.28;;;22.20;99.90;;;;;;5035136;28;20535;-83
2023/06/13 08:30:04;;;;;;;0.10;0.10;;;22.30;99.90;;;;;;5034483;28;20030;-83
2023/06/13 08:32:31;;;;;;;0.35;0.35;;;22.30;99.90;;;;;;5034629;28;20036;-83
2023/06/13 08:34:57;;;;;;;10.55;0.70;;;22.30;99.90;;;;;;5034312;28;20108;-82
2023/06/13 08:37:23;;;;;;;0.10;0.10;;;22.20;99.90;;;;;;5034403;28;20026;-83
2023/06/13 08:39:48;;;;;;;0.30;0.30;;;22.20;99.90;;;;;;5034515;28;20488;-83
2023/06/13 08:42:14;;;;;;;0.40;0.40;;;22.20;99.90;;;;;;5034672;28;20030;-83
2023/06/13 08:44:41;;;;;;;0.15;0.15;;;22.20;99.90;;;;;;5034561;28;20064;-83
2023/06/13 08:47:07;;;;;;;0.10;0.10;;;22.30;99.90;;;;;;5034499;28;20026;-83
2023/06/13 08:49:33;;;;;;;0.10;0.10;;;22.30;99.90;;;;;;5033292;28;20026;-83
2023/06/13 08:51:59;;;;;;;0.10;0.10;;;22.40;99.90;;;;;;5034097;28;20041;-83
2023/06/13 08:54:28;;;;;;;0.38;0.38;;;22.50;99.90;;;;;;5034387;28;20013;-83
2023/06/13 08:56:54;;;;;;;0.20;0.20;;;22.70;99.90;;;;;;5034135;28;20715;-83
2023/06/13 08:59:25;;;;;;;0.25;0.25;;;22.60;99.90;;;;;;5034014;28;20508;-83
2023/06/13 09:01:52;;;;;;;2.92;0.65;;;22.70;99.90;;;;;;5034059;28;20029;-83
2023/06/13 09:04:18;;;;;;;0.20;0.20;;;22.90;99.90;;;;;;5033790;28;20021;-83
2023/06/13 09:06:45;;;;;;;0.15;0.15;;;23.10;99.90;;;;;;5034289;28;20037;-83
2023/06/13 09:09:12;;;;;;;0.25;0.20;;;23.20;99.90;;;;;;5033939;28;20044;-83
2023/06/13 09:11:38;;;;;;;0.15;0.15;;;23.30;99.90;;;;;;5034016;28;20034;-83
2023/06/13 09:14:05;;;;;;;0.47;0.40;;;23.30;99.90;;;;;;5033851;28;20028;-83
2023/06/13 09:16:32;;;;;;;0.30;0.30;;;23.60;99.90;;;;;;5034805;28;20040;-83
2023/06/13 09:18:58;;;;;;;0.22;0.22;;;23.80;99.90;;;;;;5033548;28;20032;-83
2023/06/13 09:21:24;;;;;;;0.38;0.38;;;23.90;99.90;;;;;;5033642;28;20036;-83
2023/06/13 09:23:53;;;;;;;0.10;0.10;;;24.20;99.90;;;;;;5033799;28;20085;-83
2023/06/13 09:26:18;;;;;;;1.15;0.57;;;24.50;99.90;;;;;;5033590;28;20124;-83
2023/06/13 09:28:47;;;;;;;0.30;0.30;;;24.90;99.90;;;;;;5033732;28;20092;-83
2023/06/13 09:31:13;;;;;;;0.20;0.20;;;25.40;99.90;;;;;;5023342;28;20408;-87
2023/06/13 09:33:39;;;;;;;0.10;0.10;;;25.30;99.90;;;;;;5020484;28;20037;-87
2023/06/13 09:36:06;;;;;;;0.25;0.25;;;25.50;99.90;;;;;;5018591;28;20022;-86
2023/06/13 09:38:36;;;;;;;0.82;0.60;;;25.10;99.90;;;;;;5020220;28;20031;-86
2023/06/13 09:41:03;;;;;;;0.15;0.15;;;25.20;99.90;;;;;;5022331;28;20049;-86
2023/06/13 09:43:30;;;;;;;0.30;0.30;;;25.10;99.90;;;;;;5022028;28;20029;-85
2023/06/13 09:45:55;;;;;;;0.38;0.20;;;25.10;99.90;;;;;;5021709;28;20033;-86
2023/06/13 09:48:22;;;;;;;0.10;0.10;;;25.30;99.90;;;;;;5019021;28;20504;-86
2023/06/13 09:50:51;;;;;;;0.00;0.00;;;25.30;99.90;;;;;;5019719;28;20048;-86
2023/06/13 09:53:17;;;;;;;0.28;0.28;;;25.20;99.90;;;;;;5020615;28;20477;-86
2023/06/13 09:55:43;;;;;;;0.10;0.10;;;25.30;99.90;;;;;;5020464;28;20108;-86
2023/06/13 09:58:08;;;;;;;0.20;0.20;;;25.50;99.90;;;;;;5021566;28;20044;-86
2023/06/13 10:00:35;;;;;;;0.10;0.10;;;25.40;99.90;;;;;;5028048;28;20029;-85
2023/06/13 10:03:01;;;;;;;0.75;0.75;;;25.40;99.90;;;;;;5032844;28;20065;-86
2023/06/13 10:05:26;;;;;;;0.00;0.00;;;25.50;99.90;;;;;;5032381;28;20022;-86
2023/06/13 10:07:52;;;;;;;0.10;0.10;;;25.50;99.90;;;;;;5032025;28;20025;-85
2023/06/13 10:10:19;;;;;;;0.10;0.10;;;25.40;99.90;;;;;;5020979;28;20065;-86
2023/06/13 10:12:49;;;;;;;0.10;0.10;;;25.30;99.90;;;;;;5022059;28;20025;-85
2023/06/13 10:15:42;;;;;;;0.10;0.10;;;25.40;99.90;;;;;;5019923;28;20025;-86
2023/06/13 10:18:16;;;;;;;0.15;0.05;;;25.30;99.90;;;;;;5002276;28;20064;-85
2023/06/13 10:20:47;;;;;;;0.00;0.00;;;25.80;99.90;;;;;;5019843;28;20026;-85
2023/06/13 10:23:21;;;;;;;0.00;0.00;;;26.20;99.90;;;;;;5019847;28;20121;-85
2023/06/13 10:25:51;;;;;;;0.00;0.00;;;26.70;99.90;;;;;;5027972;28;20033;-86
2023/06/13 10:28:34;;;;;;;0.00;0.00;;;26.50;99.90;;;;;;5024353;28;20394;-86
2023/06/13 10:31:30;;;;;;;0.00;0.00;;;26.10;99.90;;;;;;5019794;28;20030;-86
2023/06/13 10:34:05;;;;;;;0.10;0.10;;;25.90;99.90;;;;;;5021817;28;20449;-86
2023/06/13 10:37:22;;;;;;;0.20;0.20;;;26.10;99.90;;;;;;5018759;28;20116;-86
2023/06/13 10:40:21;;;;;;;0.15;0.15;;;26.20;99.90;;;;;;5019649;28;20044;-85
2023/06/13 10:42:55;;;;;;;0.10;0.10;;;26.30;99.90;;;;;;5019692;28;20053;-87
2023/06/13 10:45:24;;;;;;;0.68;0.47;;;26.20;99.90;;;;;;5024044;28;20394;-87
2023/06/13 10:47:50;;;;;;;0.10;0.10;;;26.30;99.90;;;;;;5020174;28;20056;-86
2023/06/13 10:50:17;;;;;;;0.45;0.45;;;26.30;99.90;;;;;;5019469;28;20046;-87
2023/06/13 10:52:48;;;;;;;0.13;0.13;;;26.20;99.90;;;;;;5020193;28;20032;-87
2023/06/13 10:55:23;;;;;;;0.20;0.20;;;26.20;99.90;;;;;;5019329;28;20034;-86
2023/06/13 10:57:52;;;;;;;0.47;0.20;;;26.50;99.90;;;;;;5020324;28;20022;-89
2023/06/13 11:00:30;;;;;;;0.47;0.25;;;26.50;99.90;;;;;;5022928;28;20024;-84
2023/06/13 11:03:06;;;;;;;0.10;0.10;;;26.20;99.90;;;;;;5018314;28;20030;-84
2023/06/13 11:05:52;;;;;;;0.00;0.00;;;26.40;99.90;;;;;;5012754;28;20108;-84
2023/06/13 11:08:25;;;;;;;0.32;0.32;;;26.20;99.90;;;;;;5012222;28;20038;-83
2023/06/13 11:10:52;;;;;;;0.08;0.08;;;26.20;99.90;;;;;;5012252;28;20172;-84
2023/06/13 11:13:26;;;;;;;0.13;0.13;;;26.30;99.90;;;;;;5015618;28;20022;-84
2023/06/13 11:16:16;;;;;;;0.00;0.00;;;26.60;99.90;;;;;;5016439;28;20033;-83
2023/06/13 11:18:49;;;;;;;0.08;0.00;;;26.60;99.90;;;;;;5016059;28;20528;-84
2023/06/13 11:21:16;;;;;;;0.00;0.00;;;26.60;99.90;;;;;;5017010;28;20026;-84
2023/06/13 11:23:54;;;;;;;0.10;0.10;;;26.20;99.90;;;;;;5015848;28;20482;-83
2023/06/13 11:26:21;;;;;;;0.10;0.10;;;26.20;99.90;;;;;;5016374;28;20115;-83
2023/06/13 11:28:51;;;;;;;0.00;0.00;;;26.00;99.90;;;;;;5015488;28;20022;-84
2023/06/13 11:31:17;;;;;;;0.00;0.00;;;26.00;99.90;;;;;;5030503;28;20119;-84
2023/06/13 11:33:47;;;;;;;0.40;0.30;;;25.70;99.90;;;;;;5035740;28;20025;-84
2023/06/13 11:36:15;;;;;;;0.32;0.32;;;25.80;99.90;;;;;;5035721;28;20025;-84
2023/06/13 11:38:47;;;;;;;0.05;0.05;;;25.90;99.90;;;;;;5035802;28;20030;-83
2023/06/13 11:41:12;;;;;;;0.22;0.10;;;25.50;99.90;;;;;;5035611;28;20049;-84
2023/06/13 11:43:38;;;;;;;0.63;0.05;;;25.60;99.90;;;;;;5034743;28;20032;-84
2023/06/13 11:46:05;;;;;;;0.05;0.05;;;25.60;99.90;;;;;;5035439;28;20104;-84
2023/06/13 11:48:31;;;;;;;0.00;0.00;;;25.60;99.90;;;;;;5035471;28;20029;-84
2023/06/13 11:51:15;;;;;;;0.00;0.00;;;25.70;99.90;;;;;;5035795;28;20037;-84
2023/06/13 11:53:47;;;;;;;0.03;0.03;;;25.60;99.90;;;;;;5035010;28;20367;-84
2023/06/13 11:56:12;;;;;;;0.22;0.22;;;25.60;99.90;;;;;;5035816;28;20092;-84
2023/06/13 11:58:38;;;;;;;0.10;0.10;;;25.60;99.90;;;;;;5035527;28;20057;-83
2023/06/13 12:01:05;;;;;;;0.00;0.00;;;26.10;99.90;;;;;;5035273;28;20036;-84
2023/06/13 12:03:37;;;;;;;0.10;0.10;;;26.30;99.90;;;;;;5035337;28;20509;-84
2023/06/13 12:06:06;;;;;;;0.15;0.10;;;26.20;99.90;;;;;;5035529;28;20026;-84
2023/06/13 12:08:34;;;;;;;0.10;0.10;;;26.60;99.90;;;;;;5035102;28;20053;-84
2023/06/13 12:11:03;;;;;;;0.00;0.00;;;27.00;99.90;;;;;;5035015;28;20037;-84
2023/06/13 12:13:28;;;;;;;0.00;0.00;;;27.10;99.90;;;;;;5034702;28;20037;-84
2023/06/13 12:15:54;;;;;;;0.00;0.00;;;27.70;99.90;;;;;;5035127;28;20029;-84
2023/06/13 12:18:19;;;;;;;0.00;0.00;;;27.50;99.90;;;;;;5035377;28;20087;-84
2023/06/13 12:20:51;;;;;;;0.00;0.00;;;27.80;99.90;;;;;;5035015;28;20132;-83
2023/06/13 12:23:17;;;;;;;0.00;0.00;;;28.10;99.90;;;;;;5033486;28;20129;-84
2023/06/13 12:25:44;;;;;;;0.10;0.10;;;28.00;99.90;;;;;;5034960;28;20090;-84
2023/06/13 12:28:15;;;;;;;0.00;0.00;;;27.80;99.90;;;;;;5035092;28;20010;-84
2023/06/13 12:30:42;;;;;;;0.10;0.10;;;27.80;99.90;;;;;;5034268;28;20072;-84
2023/06/13 12:33:14;;;;;;;0.05;0.05;;;28.00;99.90;;;;;;5034675;28;20444;-84
2023/06/13 12:35:51;;;;;;;0.08;0.08;;;27.70;99.90;;;;;;5034817;28;20033;-83
2023/06/13 12:38:19;;;;;;;0.00;0.00;;;27.90;99.90;;;;;;5034673;28;20092;-84
2023/06/13 12:40:51;;;;;;;0.05;0.05;;;27.80;99.90;;;;;;5034353;28;20509;-84
2023/06/13 12:43:21;;;;;;;0.28;0.28;;;27.80;99.90;;;;;;5033887;28;20017;-83
2023/06/13 12:45:47;;;;;;;0.10;0.10;;;27.80;99.90;;;;;;5034822;28;20068;-84
2023/06/13 12:48:19;;;;;;;0.20;0.20;;;28.30;99.90;;;;;;5034351;28;20490;-84
2023/06/13 12:50:47;;;;;;;0.00;0.00;;;28.60;99.90;;;;;;5035007;28;20052;-84